sensor_id;sensor_type;location;lat;lon;timestamp;temperature;humidity
30037;DHT22;36325;51.512;-0.382;2023-03-23T00:01:27;10.70;99.90
30037;DHT22;36325;51.512;-0.382;2023-03-23T00:03:56;10.70;99.90
30037;DHT22;36325;51.512;-0.382;2023-03-23T00:06:25;10.70;99.90
30037;DHT22;36325;51.512;-0.382;2023-03-23T00:08:53;10.70;99.90
30037;DHT22;36325;51.512;-0.382;2023-03-23T00:11:29;10.70;99.90
30037;DHT22;36325;51.512;-0.382;2023-03-23T00:13:58;10.70;99.90
30037;DHT22;36325;51.512;-0.382;2023-03-23T00:16:32;10.70;99.90
30037;DHT22;36325;51.512;-0.382;2023-03-23T00:19:12;10.70;99.90
30037;DHT22;36325;51.512;-0.382;2023-03-23T00:21:40;10.60;99.90
30037;DHT22;36325;51.512;-0.382;2023-03-23T00:24:13;10.60;99.90
30037;DHT22;36325;51.512;-0.382;2023-03-23T00:26:43;10.60;99.90
30037;DHT22;36325;51.512;-0.382;2023-03-23T00:29:22;10.60;99.90
30037;DHT22;36325;51.512;-0.382;2023-03-23T00:31:50;10.60;99.90
30037;DHT22;36325;51.512;-0.382;2023-03-23T00:34:21;10.60;99.90
30037;DHT22;36325;51.512;-0.382;2023-03-23T00:36:54;10.60;99.90
30037;DHT22;36325;51.512;-0.382;2023-03-23T00:39:25;10.60;99.90
30037;DHT22;36325;51.512;-0.382;2023-03-23T00:41:53;10.70;99.90
30037;DHT22;36325;51.512;-0.382;2023-03-23T00:44:20;10.70;99.90
30037;DHT22;36325;51.512;-0.382;2023-03-23T00:46:49;10.70;99.90
30037;DHT22;36325;51.512;-0.382;2023-03-23T00:49:20;10.70;99.90
30037;DHT22;36325;51.512;-0.382;2023-03-23T00:51:55;10.70;99.90
30037;DHT22;36325;51.512;-0.382;2023-03-23T00:54:23;10.70;99.90
30037;DHT22;36325;51.512;-0.382;2023-03-23T00:56:50;10.60;99.90
30037;DHT22;36325;51.512;-0.382;2023-03-23T00:59:17;10.70;99.90
30037;DHT22;36325;51.512;-0.382;2023-03-23T01:01:44;10.70;99.90
30037;DHT22;36325;51.512;-0.382;2023-03-23T01:04:10;10.60;99.90
30037;DHT22;36325;51.512;-0.382;2023-03-23T01:06:40;10.60;99.90
30037;DHT22;36325;51.512;-0.382;2023-03-23T01:09:11;6.70;99.90
30037;DHT22;36325;51.512;-0.382;2023-03-23T01:11:44;10.60;99.90
30037;DHT22;36325;51.512;-0.382;2023-03-23T01:14:12;10.60;99.90
30037;DHT22;36325;51.512;-0.382;2023-03-23T01:16:38;10.60;99.90
30037;DHT22;36325;51.512;-0.382;2023-03-23T01:19:05;10.70;99.90
30037;DHT22;36325;51.512;-0.382;2023-03-23T01:21:31;10.70;99.90
30037;DHT22;36325;51.512;-0.382;2023-03-23T01:23:58;10.80;99.90
30037;DHT22;36325;51.512;-0.382;2023-03-23T01:26:26;11.50;99.90
30037;DHT22;36325;51.512;-0.382;2023-03-23T01:28:53;10.80;99.90
30037;DHT22;36325;51.512;-0.382;2023-03-23T01:31:21;10.80;99.90
30037;DHT22;36325;51.512;-0.382;2023-03-23T01:33:49;10.80;99.90
30037;DHT22;36325;51.512;-0.382;2023-03-23T01:36:22;10.80;99.90
30037;DHT22;36325;51.512;-0.382;2023-03-23T01:38:49;10.90;99.90
30037;DHT22;36325;51.512;-0.382;2023-03-23T01:41:18;10.80;99.90
30037;DHT22;36325;51.512;-0.382;2023-03-23T01:46:27;10.80;99.90
30037;DHT22;36325;51.512;-0.382;2023-03-23T01:48:54;10.80;99.90
30037;DHT22;36325;51.512;-0.382;2023-03-23T01:51:24;10.80;99.90
30037;DHT22;36325;51.512;-0.382;2023-03-23T01:53:56;10.70;99.90
30037;DHT22;36325;51.512;-0.382;2023-03-23T01:56:26;10.70;99.90
30037;DHT22;36325;51.512;-0.382;2023-03-23T01:58:56;10.60;99.90
30037;DHT22;36325;51.512;-0.382;2023-03-23T02:01:24;10.60;99.90
30037;DHT22;36325;51.512;-0.382;2023-03-23T02:03:54;10.60;99.90
30037;DHT22;36325;51.512;-0.382;2023-03-23T02:06:21;10.60;99.90
30037;DHT22;36325;51.512;-0.382;2023-03-23T02:09:14;10.60;99.90
30037;DHT22;36325;51.512;-0.382;2023-03-23T02:11:45;10.70;99.90
30037;DHT22;36325;51.512;-0.382;2023-03-23T02:14:13;10.60;99.90
30037;DHT22;36325;51.512;-0.382;2023-03-23T02:16:48;10.70;99.90
30037;DHT22;36325;51.512;-0.382;2023-03-23T02:22:29;10.70;99.90
30037;DHT22;36325;51.512;-0.382;2023-03-23T02:33:59;10.50;99.90
30037;DHT22;36325;51.512;-0.382;2023-03-23T02:39:11;10.40;99.90
30037;DHT22;36325;51.512;-0.382;2023-03-23T02:41:45;10.30;99.90
30037;DHT22;36325;51.512;-0.382;2023-03-23T02:44:14;10.20;99.90
30037;DHT22;36325;51.512;-0.382;2023-03-23T02:46:41;10.20;99.90
30037;DHT22;36325;51.512;-0.382;2023-03-23T02:49:09;10.20;99.90
30037;DHT22;36325;51.512;-0.382;2023-03-23T02:51:37;10.20;99.90
30037;DHT22;36325;51.512;-0.382;2023-03-23T02:54:04;10.20;99.90
30037;DHT22;36325;51.512;-0.382;2023-03-23T02:56:32;10.20;99.90
30037;DHT22;36325;51.512;-0.382;2023-03-23T02:59:00;10.10;99.90
30037;DHT22;36325;51.512;-0.382;2023-03-23T03:03:56;10.00;99.90
30037;DHT22;36325;51.512;-0.382;2023-03-23T03:09:21;10.00;99.90
30037;DHT22;36325;51.512;-0.382;2023-03-23T03:11:56;10.10;99.90
30037;DHT22;36325;51.512;-0.382;2023-03-23T03:14:33;10.10;99.90
30037;DHT22;36325;51.512;-0.382;2023-03-23T03:17:08;10.10;99.90
30037;DHT22;36325;51.512;-0.382;2023-03-23T03:19:42;10.00;99.90
30037;DHT22;36325;51.512;-0.382;2023-03-23T03:22:11;9.90;99.90
30037;DHT22;36325;51.512;-0.382;2023-03-23T03:24:40;9.90;99.90
30037;DHT22;36325;51.512;-0.382;2023-03-23T03:27:12;9.90;99.90
30037;DHT22;36325;51.512;-0.382;2023-03-23T03:29:49;9.80;99.90
30037;DHT22;36325;51.512;-0.382;2023-03-23T03:32:21;9.80;99.90
30037;DHT22;36325;51.512;-0.382;2023-03-23T03:34:49;9.70;99.90
30037;DHT22;36325;51.512;-0.382;2023-03-23T03:37:18;9.70;99.90
30037;DHT22;36325;51.512;-0.382;2023-03-23T03:39:48;9.70;99.90
30037;DHT22;36325;51.512;-0.382;2023-03-23T03:42:14;9.70;99.90
30037;DHT22;36325;51.512;-0.382;2023-03-23T03:44:41;9.70;99.90
30037;DHT22;36325;51.512;-0.382;2023-03-23T03:47:07;9.60;99.90
30037;DHT22;36325;51.512;-0.382;2023-03-23T03:49:33;9.60;99.90
30037;DHT22;36325;51.512;-0.382;2023-03-23T03:51:59;9.50;99.90
30037;DHT22;36325;51.512;-0.382;2023-03-23T03:54:35;9.50;99.90
30037;DHT22;36325;51.512;-0.382;2023-03-23T03:57:02;9.50;99.90
30037;DHT22;36325;51.512;-0.382;2023-03-23T03:59:57;9.50;99.90
30037;DHT22;36325;51.512;-0.382;2023-03-23T04:02:26;9.50;99.90
30037;DHT22;36325;51.512;-0.382;2023-03-23T04:04:53;9.40;99.90
30037;DHT22;36325;51.512;-0.382;2023-03-23T04:07:19;9.40;99.90
30037;DHT22;36325;51.512;-0.382;2023-03-23T04:09:48;9.40;99.90
30037;DHT22;36325;51.512;-0.382;2023-03-23T04:12:18;9.40;99.90
30037;DHT22;36325;51.512;-0.382;2023-03-23T04:14:56;9.40;99.90
30037;DHT22;36325;51.512;-0.382;2023-03-23T04:17:28;9.40;99.90
30037;DHT22;36325;51.512;-0.382;2023-03-23T04:19:55;9.40;99.90
30037;DHT22;36325;51.512;-0.382;2023-03-23T04:22:27;9.40;99.90
30037;DHT22;36325;51.512;-0.382;2023-03-23T04:25:00;9.40;99.90
30037;DHT22;36325;51.512;-0.382;2023-03-23T04:27:29;9.50;99.90
30037;DHT22;36325;51.512;-0.382;2023-03-23T04:29:58;9.50;99.90
30037;DHT22;36325;51.512;-0.382;2023-03-23T04:32:33;9.50;99.90
30037;DHT22;36325;51.512;-0.382;2023-03-23T04:35:00;9.50;99.90
30037;DHT22;36325;51.512;-0.382;2023-03-23T04:37:33;9.50;99.90
30037;DHT22;36325;51.512;-0.382;2023-03-23T04:40:02;9.40;99.90
30037;DHT22;36325;51.512;-0.382;2023-03-23T04:42:33;9.40;99.90
30037;DHT22;36325;51.512;-0.382;2023-03-23T04:45:21;9.40;99.90
30037;DHT22;36325;51.512;-0.382;2023-03-23T04:47:50;9.40;99.90
30037;DHT22;36325;51.512;-0.382;2023-03-23T04:50:32;9.40;99.90
30037;DHT22;36325;51.512;-0.382;2023-03-23T04:53:07;9.40;99.90
30037;DHT22;36325;51.512;-0.382;2023-03-23T04:55:35;9.40;99.90
30037;DHT22;36325;51.512;-0.382;2023-03-23T04:58:04;9.40;99.90
30037;DHT22;36325;51.512;-0.382;2023-03-23T05:00:33;9.30;99.90
30037;DHT22;36325;51.512;-0.382;2023-03-23T05:03:01;9.30;99.90
30037;DHT22;36325;51.512;-0.382;2023-03-23T05:05:29;9.30;99.90
30037;DHT22;36325;51.512;-0.382;2023-03-23T05:07:58;9.30;99.90
30037;DHT22;36325;51.512;-0.382;2023-03-23T05:10:27;9.30;99.90
30037;DHT22;36325;51.512;-0.382;2023-03-23T05:12:58;9.30;99.90
30037;DHT22;36325;51.512;-0.382;2023-03-23T05:15:25;9.20;99.90
30037;DHT22;36325;51.512;-0.382;2023-03-23T05:17:51;9.20;99.90
30037;DHT22;36325;51.512;-0.382;2023-03-23T05:20:21;9.30;99.90
30037;DHT22;36325;51.512;-0.382;2023-03-23T05:22:50;9.20;99.90
30037;DHT22;36325;51.512;-0.382;2023-03-23T05:27:59;9.30;99.90
30037;DHT22;36325;51.512;-0.382;2023-03-23T05:30:40;9.30;99.90
30037;DHT22;36325;51.512;-0.382;2023-03-23T05:33:08;9.30;99.90
30037;DHT22;36325;51.512;-0.382;2023-03-23T05:35:54;9.30;99.90
30037;DHT22;36325;51.512;-0.382;2023-03-23T05:38:26;9.30;99.90
30037;DHT22;36325;51.512;-0.382;2023-03-23T05:40:58;9.30;99.90
30037;DHT22;36325;51.512;-0.382;2023-03-23T05:43:32;9.30;99.90
30037;DHT22;36325;51.512;-0.382;2023-03-23T05:46:18;9.20;99.90
30037;DHT22;36325;51.512;-0.382;2023-03-23T05:48:46;9.20;99.90
30037;DHT22;36325;51.512;-0.382;2023-03-23T05:51:16;9.20;99.90
30037;DHT22;36325;51.512;-0.382;2023-03-23T05:53:44;9.20;99.90
30037;DHT22;36325;51.512;-0.382;2023-03-23T05:56:14;9.20;99.90
30037;DHT22;36325;51.512;-0.382;2023-03-23T05:58:59;9.20;99.90
30037;DHT22;36325;51.512;-0.382;2023-03-23T06:01:28;9.20;99.90
30037;DHT22;36325;51.512;-0.382;2023-03-23T06:03:54;9.30;99.90
30037;DHT22;36325;51.512;-0.382;2023-03-23T06:06:36;9.30;99.90
30037;DHT22;36325;51.512;-0.382;2023-03-23T06:09:06;9.30;99.90
30037;DHT22;36325;51.512;-0.382;2023-03-23T06:11:55;9.40;99.90
30037;DHT22;36325;51.512;-0.382;2023-03-23T06:14:36;9.30;99.90
30037;DHT22;36325;51.512;-0.382;2023-03-23T06:17:04;9.40;99.90
30037;DHT22;36325;51.512;-0.382;2023-03-23T06:19:30;9.40;99.90
30037;DHT22;36325;51.512;-0.382;2023-03-23T06:22:04;9.40;99.90
30037;DHT22;36325;51.512;-0.382;2023-03-23T06:24:43;9.50;99.90
30037;DHT22;36325;51.512;-0.382;2023-03-23T06:27:12;9.50;99.90
30037;DHT22;36325;51.512;-0.382;2023-03-23T06:29:41;9.60;99.90
30037;DHT22;36325;51.512;-0.382;2023-03-23T06:32:11;9.60;99.90
30037;DHT22;36325;51.512;-0.382;2023-03-23T06:34:39;9.70;99.90
30037;DHT22;36325;51.512;-0.382;2023-03-23T06:37:27;9.60;99.90
30037;DHT22;36325;51.512;-0.382;2023-03-23T06:40:17;9.70;99.90
30037;DHT22;36325;51.512;-0.382;2023-03-23T06:42:51;9.70;99.90
30037;DHT22;36325;51.512;-0.382;2023-03-23T06:45:32;9.80;99.90
30037;DHT22;36325;51.512;-0.382;2023-03-23T06:48:21;9.80;99.90
30037;DHT22;36325;51.512;-0.382;2023-03-23T06:50:48;9.80;99.90
30037;DHT22;36325;51.512;-0.382;2023-03-23T06:53:18;10.00;99.90
30037;DHT22;36325;51.512;-0.382;2023-03-23T06:55:47;9.40;99.90
30037;DHT22;36325;51.512;-0.382;2023-03-23T06:58:13;10.10;99.90
30037;DHT22;36325;51.512;-0.382;2023-03-23T07:00:40;10.20;99.90
30037;DHT22;36325;51.512;-0.382;2023-03-23T07:03:08;13.80;99.90
30037;DHT22;36325;51.512;-0.382;2023-03-23T07:05:37;10.30;99.90
30037;DHT22;36325;51.512;-0.382;2023-03-23T07:08:07;10.30;99.90
30037;DHT22;36325;51.512;-0.382;2023-03-23T07:10:51;10.30;99.90
30037;DHT22;36325;51.512;-0.382;2023-03-23T07:13:22;10.30;99.90
30037;DHT22;36325;51.512;-0.382;2023-03-23T07:15:53;10.30;99.90
30037;DHT22;36325;51.512;-0.382;2023-03-23T07:18:20;10.30;99.90
30037;DHT22;36325;51.512;-0.382;2023-03-23T07:20:49;10.40;99.90
30037;DHT22;36325;51.512;-0.382;2023-03-23T07:23:17;10.60;99.90
30037;DHT22;36325;51.512;-0.382;2023-03-23T07:25:50;10.70;99.90
30037;DHT22;36325;51.512;-0.382;2023-03-23T07:28:23;10.70;99.90
30037;DHT22;36325;51.512;-0.382;2023-03-23T07:35:50;11.00;99.90
30037;DHT22;36325;51.512;-0.382;2023-03-23T07:38:18;11.10;99.90
30037;DHT22;36325;51.512;-0.382;2023-03-23T07:40:48;11.20;99.90
30037;DHT22;36325;51.512;-0.382;2023-03-23T07:43:17;11.20;99.90
30037;DHT22;36325;51.512;-0.382;2023-03-23T07:46:02;11.20;99.90
30037;DHT22;36325;51.512;-0.382;2023-03-23T07:48:38;11.30;99.90
30037;DHT22;36325;51.512;-0.382;2023-03-23T07:51:05;11.50;99.90
30037;DHT22;36325;51.512;-0.382;2023-03-23T07:53:32;11.50;99.90
30037;DHT22;36325;51.512;-0.382;2023-03-23T07:56:30;11.60;99.90
30037;DHT22;36325;51.512;-0.382;2023-03-23T07:59:12;11.60;99.90
30037;DHT22;36325;51.512;-0.382;2023-03-23T08:01:40;11.80;99.90
30037;DHT22;36325;51.512;-0.382;2023-03-23T08:04:24;12.00;99.90
30037;DHT22;36325;51.512;-0.382;2023-03-23T08:07:16;12.20;99.90
30037;DHT22;36325;51.512;-0.382;2023-03-23T08:10:07;12.20;99.90
30037;DHT22;36325;51.512;-0.382;2023-03-23T08:12:57;12.40;99.90
30037;DHT22;36325;51.512;-0.382;2023-03-23T08:15:51;12.50;99.90
30037;DHT22;36325;51.512;-0.382;2023-03-23T08:18:52;12.70;99.90
30037;DHT22;36325;51.512;-0.382;2023-03-23T08:24:18;12.70;99.90
30037;DHT22;36325;51.512;-0.382;2023-03-23T08:26:50;12.90;99.90
30037;DHT22;36325;51.512;-0.382;2023-03-23T08:29:48;12.90;99.90
30037;DHT22;36325;51.512;-0.382;2023-03-23T08:32:31;12.90;99.90
30037;DHT22;36325;51.512;-0.382;2023-03-23T08:35:15;12.70;99.90
30037;DHT22;36325;51.512;-0.382;2023-03-23T08:37:41;12.80;99.90
30037;DHT22;36325;51.512;-0.382;2023-03-23T08:40:39;12.80;99.90
30037;DHT22;36325;51.512;-0.382;2023-03-23T08:43:43;12.70;99.90
30037;DHT22;36325;51.512;-0.382;2023-03-23T08:46:32;12.90;99.90
30037;DHT22;36325;51.512;-0.382;2023-03-23T08:49:27;13.40;99.90
30037;DHT22;36325;51.512;-0.382;2023-03-23T08:52:11;13.40;99.90
30037;DHT22;36325;51.512;-0.382;2023-03-23T08:55:06;13.60;99.90
30037;DHT22;36325;51.512;-0.382;2023-03-23T08:57:58;13.60;99.90
30037;DHT22;36325;51.512;-0.382;2023-03-23T09:00:50;13.40;99.90
30037;DHT22;36325;51.512;-0.382;2023-03-23T09:03:51;13.40;99.90
30037;DHT22;36325;51.512;-0.382;2023-03-23T09:06:36;13.50;99.90
30037;DHT22;36325;51.512;-0.382;2023-03-23T09:09:03;13.80;99.90
30037;DHT22;36325;51.512;-0.382;2023-03-23T09:11:35;14.00;99.90
30037;DHT22;36325;51.512;-0.382;2023-03-23T09:14:04;14.00;99.90
30037;DHT22;36325;51.512;-0.382;2023-03-23T09:16:31;14.20;99.90
30037;DHT22;36325;51.512;-0.382;2023-03-23T09:18:57;14.10;99.90
30037;DHT22;36325;51.512;-0.382;2023-03-23T09:21:24;14.10;99.90
30037;DHT22;36325;51.512;-0.382;2023-03-23T09:23:51;14.30;99.90
30037;DHT22;36325;51.512;-0.382;2023-03-23T09:26:17;14.60;99.90
30037;DHT22;36325;51.512;-0.382;2023-03-23T09:28:43;14.60;99.90
30037;DHT22;36325;51.512;-0.382;2023-03-23T09:31:12;14.70;99.90
30037;DHT22;36325;51.512;-0.382;2023-03-23T09:33:38;14.80;99.90
30037;DHT22;36325;51.512;-0.382;2023-03-23T09:36:05;15.00;99.90
30037;DHT22;36325;51.512;-0.382;2023-03-23T09:38:34;15.00;99.90
30037;DHT22;36325;51.512;-0.382;2023-03-23T09:49:42;15.50;99.90
30037;DHT22;36325;51.512;-0.382;2023-03-23T09:52:16;15.90;99.90
30037;DHT22;36325;51.512;-0.382;2023-03-23T09:54:43;16.10;99.90
30037;DHT22;36325;51.512;-0.382;2023-03-23T09:57:22;15.80;99.90
30037;DHT22;36325;51.512;-0.382;2023-03-23T10:00:02;15.50;99.90
30037;DHT22;36325;51.512;-0.382;2023-03-23T10:05:49;15.50;99.90
30037;DHT22;36325;51.512;-0.382;2023-03-23T10:08:21;15.60;99.90
30037;DHT22;36325;51.512;-0.382;2023-03-23T10:15:57;15.40;99.90
30037;DHT22;36325;51.512;-0.382;2023-03-23T10:18:41;15.00;99.90
30037;DHT22;36325;51.512;-0.382;2023-03-23T10:21:16;14.90;99.90
30037;DHT22;36325;51.512;-0.382;2023-03-23T10:23:59;14.80;99.90
30037;DHT22;36325;51.512;-0.382;2023-03-23T10:30:41;14.40;99.90
30037;DHT22;36325;51.512;-0.382;2023-03-23T10:35:34;14.50;99.90
30037;DHT22;36325;51.512;-0.382;2023-03-23T10:38:05;14.40;99.90
30037;DHT22;36325;51.512;-0.382;2023-03-23T10:40:43;14.50;99.90
30037;DHT22;36325;51.512;-0.382;2023-03-23T10:43:09;14.50;99.90
30037;DHT22;36325;51.512;-0.382;2023-03-23T10:45:35;14.60;99.90
30037;DHT22;36325;51.512;-0.382;2023-03-23T10:50:41;14.70;99.90
30037;DHT22;36325;51.512;-0.382;2023-03-23T10:53:19;14.50;99.90
30037;DHT22;36325;51.512;-0.382;2023-03-23T10:55:46;14.20;99.90
30037;DHT22;36325;51.512;-0.382;2023-03-23T10:58:26;13.90;99.90
30037;DHT22;36325;51.512;-0.382;2023-03-23T11:00:59;13.90;99.90
30037;DHT22;36325;51.512;-0.382;2023-03-23T11:03:42;13.80;99.90
30037;DHT22;36325;51.512;-0.382;2023-03-23T11:06:27;13.80;99.90
30037;DHT22;36325;51.512;-0.382;2023-03-23T11:09:12;14.10;99.90
30037;DHT22;36325;51.512;-0.382;2023-03-23T11:11:40;14.10;99.90
30037;DHT22;36325;51.512;-0.382;2023-03-23T11:14:28;14.70;99.90
30037;DHT22;36325;51.512;-0.382;2023-03-23T11:16:57;15.20;99.90
30037;DHT22;36325;51.512;-0.382;2023-03-23T11:19:35;15.40;99.90
30037;DHT22;36325;51.512;-0.382;2023-03-23T11:24:40;15.40;99.90
30037;DHT22;36325;51.512;-0.382;2023-03-23T11:27:07;15.50;99.90
30037;DHT22;36325;51.512;-0.382;2023-03-23T11:29:36;16.10;99.90
30037;DHT22;36325;51.512;-0.382;2023-03-23T11:32:11;16.40;99.90
30037;DHT22;36325;51.512;-0.382;2023-03-23T11:34:44;16.40;99.90
30037;DHT22;36325;51.512;-0.382;2023-03-23T11:37:14;16.10;99.90
30037;DHT22;36325;51.512;-0.382;2023-03-23T11:39:53;16.10;99.90
30037;DHT22;36325;51.512;-0.382;2023-03-23T11:42:24;17.00;99.90
30037;DHT22;36325;51.512;-0.382;2023-03-23T11:45:17;17.00;99.90
30037;DHT22;36325;51.512;-0.382;2023-03-23T11:48:10;17.00;99.90
30037;DHT22;36325;51.512;-0.382;2023-03-23T11:58:13;15.30;99.90
30037;DHT22;36325;51.512;-0.382;2023-03-23T12:00:45;14.90;99.90
30037;DHT22;36325;51.512;-0.382;2023-03-23T12:06:11;15.70;99.90
30037;DHT22;36325;51.512;-0.382;2023-03-23T12:08:53;16.10;99.90
30037;DHT22;36325;51.512;-0.382;2023-03-23T12:11:51;16.30;99.90
30037;DHT22;36325;51.512;-0.382;2023-03-23T12:14:31;16.20;99.90
30037;DHT22;36325;51.512;-0.382;2023-03-23T12:28:02;16.60;99.90
30037;DHT22;36325;51.512;-0.382;2023-03-23T12:38:54;17.90;99.90
30037;DHT22;36325;51.512;-0.382;2023-03-23T12:42:01;17.60;99.90
30037;DHT22;36325;51.512;-0.382;2023-03-23T12:44:26;17.60;99.90
30037;DHT22;36325;51.512;-0.382;2023-03-23T12:50:26;17.80;99.90
30037;DHT22;36325;51.512;-0.382;2023-03-23T12:59:29;20.50;99.90
30037;DHT22;36325;51.512;-0.382;2023-03-23T13:02:17;20.80;99.90
30037;DHT22;36325;51.512;-0.382;2023-03-23T13:04:52;20.90;99.90
30037;DHT22;36325;51.512;-0.382;2023-03-23T13:07:26;20.50;99.90
30037;DHT22;36325;51.512;-0.382;2023-03-23T13:10:05;19.60;99.90
30037;DHT22;36325;51.512;-0.382;2023-03-23T13:12:32;18.70;99.90
30037;DHT22;36325;51.512;-0.382;2023-03-23T13:17:38;17.30;99.90
30037;DHT22;36325;51.512;-0.382;2023-03-23T13:21:07;17.20;99.90
30037;DHT22;36325;51.512;-0.382;2023-03-23T13:23:22;16.80;99.90
30037;DHT22;36325;51.512;-0.382;2023-03-23T13:28:24;17.30;99.90
30037;DHT22;36325;51.512;-0.382;2023-03-23T13:30:55;17.00;99.90
30037;DHT22;36325;51.512;-0.382;2023-03-23T13:33:22;17.30;99.90
30037;DHT22;36325;51.512;-0.382;2023-03-23T13:35:49;17.20;99.90
30037;DHT22;36325;51.512;-0.382;2023-03-23T13:38:27;16.90;99.90
30037;DHT22;36325;51.512;-0.382;2023-03-23T13:40:57;16.60;99.90
30037;DHT22;36325;51.512;-0.382;2023-03-23T13:43:31;16.50;99.90
30037;DHT22;36325;51.512;-0.382;2023-03-23T13:48:48;16.30;99.90
30037;DHT22;36325;51.512;-0.382;2023-03-23T13:51:32;16.40;99.90
30037;DHT22;36325;51.512;-0.382;2023-03-23T13:54:19;18.10;99.90
30037;DHT22;36325;51.512;-0.382;2023-03-23T13:56:57;18.10;99.90
30037;DHT22;36325;51.512;-0.382;2023-03-23T14:01:54;18.20;99.90
30037;DHT22;36325;51.512;-0.382;2023-03-23T14:04:22;17.00;99.90
30037;DHT22;36325;51.512;-0.382;2023-03-23T14:06:50;17.00;99.90
30037;DHT22;36325;51.512;-0.382;2023-03-23T14:09:33;16.80;99.90
30037;DHT22;36325;51.512;-0.382;2023-03-23T14:12:15;16.70;99.90
30037;DHT22;36325;51.512;-0.382;2023-03-23T14:14:49;16.40;99.90
30037;DHT22;36325;51.512;-0.382;2023-03-23T14:17:25;16.20;99.90
30037;DHT22;36325;51.512;-0.382;2023-03-23T14:19:54;16.00;99.90
30037;DHT22;36325;51.512;-0.382;2023-03-23T14:22:36;15.50;99.90
30037;DHT22;36325;51.512;-0.382;2023-03-23T14:25:15;15.50;99.90
30037;DHT22;36325;51.512;-0.382;2023-03-23T14:27:42;15.40;99.90
30037;DHT22;36325;51.512;-0.382;2023-03-23T14:30:18;15.40;99.90
30037;DHT22;36325;51.512;-0.382;2023-03-23T14:32:44;15.30;99.90
30037;DHT22;36325;51.512;-0.382;2023-03-23T14:35:57;15.10;99.90
30037;DHT22;36325;51.512;-0.382;2023-03-23T14:38:20;15.10;99.90
30037;DHT22;36325;51.512;-0.382;2023-03-23T14:40:47;15.00;99.90
30037;DHT22;36325;51.512;-0.382;2023-03-23T14:43:16;14.90;99.90
30037;DHT22;36325;51.512;-0.382;2023-03-23T14:45:43;14.80;99.90
30037;DHT22;36325;51.512;-0.382;2023-03-23T14:48:13;14.70;99.90
30037;DHT22;36325;51.512;-0.382;2023-03-23T14:50:51;14.70;99.90
30037;DHT22;36325;51.512;-0.382;2023-03-23T14:53:23;14.70;99.90
30037;DHT22;36325;51.512;-0.382;2023-03-23T14:55:52;14.60;99.90
30037;DHT22;36325;51.512;-0.382;2023-03-23T14:58:22;14.50;99.90
30037;DHT22;36325;51.512;-0.382;2023-03-23T15:01:02;14.40;99.90
30037;DHT22;36325;51.512;-0.382;2023-03-23T15:03:36;14.20;99.90
30037;DHT22;36325;51.512;-0.382;2023-03-23T15:06:10;14.10;99.90
30037;DHT22;36325;51.512;-0.382;2023-03-23T15:08:38;14.00;99.90
30037;DHT22;36325;51.512;-0.382;2023-03-23T15:11:13;13.90;99.90
30037;DHT22;36325;51.512;-0.382;2023-03-23T15:13:44;13.80;99.90
30037;DHT22;36325;51.512;-0.382;2023-03-23T15:16:32;13.70;99.90
30037;DHT22;36325;51.512;-0.382;2023-03-23T15:19:22;13.60;99.90
30037;DHT22;36325;51.512;-0.382;2023-03-23T15:24:41;12.90;99.90
30037;DHT22;36325;51.512;-0.382;2023-03-23T15:27:17;12.90;99.90
30037;DHT22;36325;51.512;-0.382;2023-03-23T15:29:54;12.40;99.90
30037;DHT22;36325;51.512;-0.382;2023-03-23T15:32:41;12.40;99.90
30037;DHT22;36325;51.512;-0.382;2023-03-23T15:35:20;12.30;99.90
30037;DHT22;36325;51.512;-0.382;2023-03-23T15:37:59;12.20;99.90
30037;DHT22;36325;51.512;-0.382;2023-03-23T15:40:27;12.20;99.90
30037;DHT22;36325;51.512;-0.382;2023-03-23T15:43:19;12.20;99.90
30037;DHT22;36325;51.512;-0.382;2023-03-23T15:46:19;12.20;99.90
30037;DHT22;36325;51.512;-0.382;2023-03-23T15:48:51;12.20;99.90
30037;DHT22;36325;51.512;-0.382;2023-03-23T15:51:20;12.20;99.90
30037;DHT22;36325;51.512;-0.382;2023-03-23T15:53:47;12.10;99.90
30037;DHT22;36325;51.512;-0.382;2023-03-23T15:58:40;12.10;99.90
30037;DHT22;36325;51.512;-0.382;2023-03-23T16:01:27;12.20;99.90
30037;DHT22;36325;51.512;-0.382;2023-03-23T16:04:09;12.10;99.90
30037;DHT22;36325;51.512;-0.382;2023-03-23T16:06:37;12.10;99.90
30037;DHT22;36325;51.512;-0.382;2023-03-23T16:09:06;12.10;99.90
30037;DHT22;36325;51.512;-0.382;2023-03-23T16:11:33;12.00;99.90
30037;DHT22;36325;51.512;-0.382;2023-03-23T16:14:01;12.00;99.90
30037;DHT22;36325;51.512;-0.382;2023-03-23T16:16:36;11.90;99.90
30037;DHT22;36325;51.512;-0.382;2023-03-23T16:19:04;11.70;99.90
30037;DHT22;36325;51.512;-0.382;2023-03-23T16:21:32;11.30;99.90
30037;DHT22;36325;51.512;-0.382;2023-03-23T16:24:00;11.60;99.90
30037;DHT22;36325;51.512;-0.382;2023-03-23T16:26:27;11.50;99.90
30037;DHT22;36325;51.512;-0.382;2023-03-23T16:28:55;11.50;99.90
30037;DHT22;36325;51.512;-0.382;2023-03-23T16:31:32;11.40;99.90
30037;DHT22;36325;51.512;-0.382;2023-03-23T16:33:59;11.40;99.90
30037;DHT22;36325;51.512;-0.382;2023-03-23T16:36:26;11.30;99.90
30037;DHT22;36325;51.512;-0.382;2023-03-23T16:38:56;11.20;99.90
30037;DHT22;36325;51.512;-0.382;2023-03-23T16:43:51;11.20;99.90
30037;DHT22;36325;51.512;-0.382;2023-03-23T16:46:18;11.10;99.90
30037;DHT22;36325;51.512;-0.382;2023-03-23T16:48:45;11.10;99.90
30037;DHT22;36325;51.512;-0.382;2023-03-23T16:51:12;11.10;99.90
30037;DHT22;36325;51.512;-0.382;2023-03-23T16:53:40;11.20;99.90
30037;DHT22;36325;51.512;-0.382;2023-03-23T16:56:10;11.20;99.90
30037;DHT22;36325;51.512;-0.382;2023-03-23T16:58:37;11.20;99.90
30037;DHT22;36325;51.512;-0.382;2023-03-23T17:01:12;11.20;99.90
30037;DHT22;36325;51.512;-0.382;2023-03-23T17:03:39;11.20;99.90
30037;DHT22;36325;51.512;-0.382;2023-03-23T17:06:09;11.20;99.90
30037;DHT22;36325;51.512;-0.382;2023-03-23T17:08:37;11.20;99.90
30037;DHT22;36325;51.512;-0.382;2023-03-23T17:11:05;11.20;99.90
30037;DHT22;36325;51.512;-0.382;2023-03-23T17:13:32;11.20;99.90
30037;DHT22;36325;51.512;-0.382;2023-03-23T17:15:59;11.20;99.90
30037;DHT22;36325;51.512;-0.382;2023-03-23T17:18:27;11.20;99.90
30037;DHT22;36325;51.512;-0.382;2023-03-23T17:20:55;11.20;99.90
30037;DHT22;36325;51.512;-0.382;2023-03-23T17:23:22;11.20;99.90
30037;DHT22;36325;51.512;-0.382;2023-03-23T17:25:50;11.20;99.90
30037;DHT22;36325;51.512;-0.382;2023-03-23T17:28:17;11.20;99.90
30037;DHT22;36325;51.512;-0.382;2023-03-23T17:30:46;11.20;99.90
30037;DHT22;36325;51.512;-0.382;2023-03-23T17:33:14;11.20;99.90
30037;DHT22;36325;51.512;-0.382;2023-03-23T17:35:41;11.20;99.90
30037;DHT22;36325;51.512;-0.382;2023-03-23T17:38:12;11.20;99.90
30037;DHT22;36325;51.512;-0.382;2023-03-23T17:40:39;11.20;99.90
30037;DHT22;36325;51.512;-0.382;2023-03-23T17:45:34;11.20;99.90
30037;DHT22;36325;51.512;-0.382;2023-03-23T17:48:02;11.20;99.90
30037;DHT22;36325;51.512;-0.382;2023-03-23T17:50:34;11.20;99.90
30037;DHT22;36325;51.512;-0.382;2023-03-23T17:53:02;11.20;99.90
30037;DHT22;36325;51.512;-0.382;2023-03-23T17:55:29;11.20;99.90
30037;DHT22;36325;51.512;-0.382;2023-03-23T18:00:24;11.20;99.90
30037;DHT22;36325;51.512;-0.382;2023-03-23T18:02:51;11.20;99.90